createdAt,value
2022-12-20T00:01:35.218Z,100384.28
2022-12-20T00:04:05.859Z,100373.44
2022-12-20T00:06:36.771Z,100389.91
2022-12-20T00:09:06.421Z,100399.28
2022-12-20T00:11:33.777Z,100381.53
2022-12-20T00:14:00.684Z,100388.06
2022-12-20T00:16:29.286Z,100392.59
2022-12-20T00:19:02.301Z,100388.72
2022-12-20T00:21:30.691Z,100368.06
2022-12-20T00:23:58.358Z,100380.28
2022-12-20T00:26:29.026Z,100364.13
2022-12-20T00:28:57.054Z,100364.50
2022-12-20T00:31:25.706Z,100394.41
2022-12-20T00:33:55.309Z,100387.50
2022-12-20T00:36:24.064Z,100385.41
2022-12-20T00:38:54.294Z,100352.69
2022-12-20T00:41:28.179Z,100351.59
2022-12-20T00:43:55.591Z,100373.75
2022-12-20T00:46:24.885Z,100349.09
2022-12-20T00:48:54.522Z,100352.75
2022-12-20T00:51:25.317Z,100346.81
2022-12-20T00:53:53.304Z,100325.53
2022-12-20T00:56:20.741Z,100332.88
2022-12-20T00:58:48.876Z,100335.22
2022-12-20T01:01:27.943Z,100323.06
2022-12-20T01:03:55.275Z,100305.25
2022-12-20T01:06:24.263Z,100318.53
2022-12-20T01:08:52.831Z,100304.75
2022-12-20T01:11:24.012Z,100308.53
2022-12-20T01:13:56.241Z,100292.91
2022-12-20T01:16:33.492Z,100300.22
2022-12-20T01:19:01.489Z,100331.41
2022-12-20T01:21:29.499Z,100300.53
2022-12-20T01:23:56.840Z,100270.00
2022-12-20T01:26:26.703Z,100327.88
2022-12-20T01:28:56.384Z,100313.13
2022-12-20T01:31:24.761Z,100315.72
2022-12-20T01:33:52.716Z,100304.06
2022-12-20T01:36:29.545Z,100305.13
2022-12-20T01:39:01.235Z,100307.16
2022-12-20T01:41:30.945Z,100294.63
2022-12-20T01:44:01.561Z,100282.00
2022-12-20T01:46:39.723Z,100305.00
2022-12-20T01:49:26.828Z,100282.00
2022-12-20T01:52:03.525Z,100306.19
2022-12-20T01:54:45.207Z,100304.66
2022-12-20T01:57:21.320Z,100314.94
2022-12-20T01:59:51.045Z,100310.22
2022-12-20T02:02:18.794Z,100284.63
2022-12-20T02:04:45.987Z,100281.19
2022-12-20T02:07:17.578Z,100303.22
2022-12-20T02:09:45.305Z,100297.41
2022-12-20T02:12:26.735Z,100289.56
2022-12-20T02:15:30.714Z,100298.00
2022-12-20T02:18:11.022Z,100288.38
2022-12-20T02:21:07.263Z,100282.66
2022-12-20T02:24:12.143Z,100283.28
2022-12-20T02:27:07.822Z,100276.72
2022-12-20T02:29:43.623Z,100265.88
2022-12-20T02:32:24.829Z,100273.66
2022-12-20T02:34:52.979Z,100271.00
2022-12-20T02:37:20.380Z,100241.22
2022-12-20T02:39:48.838Z,100238.72
2022-12-20T02:42:22.565Z,100257.88
2022-12-20T02:45:15.373Z,100228.25
2022-12-20T02:47:57.781Z,100251.31
2022-12-20T02:50:31.929Z,100235.41
2022-12-20T02:53:00.668Z,100237.59
2022-12-20T02:55:50.998Z,100212.81
2022-12-20T02:58:39.248Z,100249.50
2022-12-20T03:01:12.232Z,100239.25
2022-12-20T03:03:40.137Z,100226.44
2022-12-20T03:06:07.870Z,100198.44
2022-12-20T03:08:35.828Z,100219.75
2022-12-20T03:11:03.141Z,100224.13
2022-12-20T03:13:32.108Z,100227.66
2022-12-20T03:16:03.315Z,100201.91
2022-12-20T03:18:30.258Z,100209.59
2022-12-20T03:20:57.726Z,100185.84
2022-12-20T03:23:25.436Z,100187.81
2022-12-20T03:25:52.762Z,100190.91
2022-12-20T03:28:40.018Z,100189.88
2022-12-20T03:31:09.368Z,100176.34
2022-12-20T03:33:44.503Z,100177.09
2022-12-20T03:36:12.088Z,100176.03
2022-12-20T03:38:39.497Z,100156.53
2022-12-20T03:41:08.278Z,100139.75
2022-12-20T03:43:35.534Z,100191.41
2022-12-20T03:46:03.868Z,100176.63
2022-12-20T03:48:35.082Z,100174.09
2022-12-20T03:51:02.253Z,100154.56
2022-12-20T03:53:29.948Z,100176.13
2022-12-20T03:55:57.539Z,100162.59
2022-12-20T03:58:25.093Z,100138.84
2022-12-20T04:00:52.086Z,100145.72
2022-12-20T04:03:55.304Z,100154.88
2022-12-20T04:06:23.576Z,100114.97
2022-12-20T04:08:51.538Z,100141.25
2022-12-20T04:11:29.115Z,100101.06
2022-12-20T04:14:04.907Z,100111.34
2022-12-20T04:16:34.171Z,100104.53
2022-12-20T04:19:02.228Z,100109.38
2022-12-20T04:21:36.115Z,100127.56
2022-12-20T04:24:05.367Z,100107.88
2022-12-20T04:26:44.043Z,100134.69
2022-12-20T04:29:12.484Z,100118.59
2022-12-20T04:31:42.461Z,100096.03
2022-12-20T04:34:10.100Z,100119.59
2022-12-20T04:36:38.128Z,100118.03
2022-12-20T04:39:14.475Z,100113.84
2022-12-20T04:42:00.563Z,100102.72
2022-12-20T04:44:28.591Z,100108.16
2022-12-20T04:46:55.929Z,100097.88
2022-12-20T04:49:23.312Z,100102.84
2022-12-20T04:51:50.256Z,100109.13
2022-12-20T04:54:18.623Z,100110.72
2022-12-20T04:56:57.800Z,100105.00
2022-12-20T04:59:25.145Z,100101.09
2022-12-20T05:01:54.461Z,100101.00
2022-12-20T05:04:50.577Z,100110.41
2022-12-20T05:07:17.933Z,100100.47
2022-12-20T05:09:51.295Z,100094.53
2022-12-20T05:12:18.754Z,100079.88
2022-12-20T05:14:46.287Z,100093.56
2022-12-20T05:17:16.336Z,100071.03
2022-12-20T05:19:44.079Z,100095.78
2022-12-20T05:22:31.578Z,100081.38
2022-12-20T05:25:30.365Z,100076.19
2022-12-20T05:28:01.246Z,100074.84
2022-12-20T05:30:32.401Z,100053.47
2022-12-20T05:32:59.477Z,100068.63
2022-12-20T05:35:27.450Z,100049.94
2022-12-20T05:38:02.615Z,100074.47
2022-12-20T05:40:31.979Z,100085.75
2022-12-20T05:42:59.691Z,100030.09
2022-12-20T05:45:35.844Z,100062.72
2022-12-20T05:48:08.789Z,100035.56
2022-12-20T05:50:39.737Z,100015.81
2022-12-20T05:53:32.686Z,100017.84
2022-12-20T05:56:04.092Z,100035.88
2022-12-20T05:58:34.526Z,100029.59
2022-12-20T06:01:06.353Z,100006.75
2022-12-20T06:03:40.974Z,100006.66
2022-12-20T06:06:15.419Z,100023.53
2022-12-20T06:08:45.837Z,100011.03
2022-12-20T06:11:36.337Z,100022.69
2022-12-20T06:14:09.844Z,99997.00
2022-12-20T06:16:40.653Z,100005.75
2022-12-20T06:19:12.538Z,100037.69
2022-12-20T06:21:41.811Z,100028.66
2022-12-20T06:24:11.747Z,100034.34
2022-12-20T06:26:42.514Z,100029.69
2022-12-20T06:29:14.399Z,100008.59
2022-12-20T06:31:47.885Z,100013.56
2022-12-20T06:34:16.187Z,100005.66
2022-12-20T06:36:43.908Z,100011.31
2022-12-20T06:39:17.451Z,100007.09
2022-12-20T06:42:00.118Z,99985.66
2022-12-20T06:44:27.309Z,100006.84
2022-12-20T06:46:54.503Z,99983.13
2022-12-20T06:49:22.621Z,99984.72
2022-12-20T06:51:50.479Z,99977.91
2022-12-20T06:54:21.845Z,99974.16
2022-12-20T06:56:48.867Z,99971.78
2022-12-20T06:59:17.168Z,99974.97
2022-12-20T07:01:44.984Z,99943.19
2022-12-20T07:04:12.154Z,99985.38
2022-12-20T07:06:39.202Z,99958.53
2022-12-20T07:09:06.345Z,99941.78
2022-12-20T07:11:33.664Z,99930.03
2022-12-20T07:14:00.767Z,99929.38
2022-12-20T07:16:27.741Z,99943.91
2022-12-20T07:18:55.573Z,99909.19
2022-12-20T07:21:22.626Z,99930.69
2022-12-20T07:23:49.634Z,99929.63
2022-12-20T07:26:16.624Z,99926.16
2022-12-20T07:28:43.864Z,99910.41
2022-12-20T07:31:11.112Z,99898.53
2022-12-20T07:33:39.101Z,99900.19
2022-12-20T07:36:11.451Z,99891.75
2022-12-20T07:38:39.123Z,99898.88
2022-12-20T07:41:10.538Z,99888.97
2022-12-20T07:43:38.146Z,99873.06
2022-12-20T07:46:06.683Z,99864.44
2022-12-20T07:48:34.499Z,99857.16
2022-12-20T07:51:10.392Z,99872.47
2022-12-20T07:53:44.567Z,99850.44
2022-12-20T07:56:13.890Z,99850.38
2022-12-20T07:58:43.394Z,99829.97
2022-12-20T08:01:13.049Z,99831.88
2022-12-20T08:03:51.076Z,99830.19
2022-12-20T08:06:19.167Z,99807.44
2022-12-20T08:08:51.550Z,99814.56
2022-12-20T08:11:20.848Z,99815.66
2022-12-20T08:13:55.657Z,99790.34
2022-12-20T08:16:24.941Z,99802.34
2022-12-20T08:18:52.248Z,99771.25
2022-12-20T08:21:19.473Z,99785.91
2022-12-20T08:23:46.361Z,99786.72
2022-12-20T08:26:13.586Z,99782.66
2022-12-20T08:28:40.686Z,99792.84
2022-12-20T08:31:08.974Z,99782.53
2022-12-20T08:33:38.614Z,99776.41
2022-12-20T08:36:10.867Z,99780.88
2022-12-20T08:38:38.209Z,99770.47
2022-12-20T08:41:11.132Z,99760.50
2022-12-20T08:43:39.401Z,99771.53
2022-12-20T08:46:08.166Z,99765.44
2022-12-20T08:48:36.068Z,99761.41
2022-12-20T08:51:09.501Z,99731.91
2022-12-20T08:53:37.540Z,99758.31
2022-12-20T08:56:18.080Z,99740.91
2022-12-20T08:58:45.812Z,99749.16
2022-12-20T09:01:15.654Z,99714.31
2022-12-20T09:03:43.206Z,99761.69
2022-12-20T09:06:13.586Z,99720.38
2022-12-20T09:08:41.213Z,99728.00
2022-12-20T09:11:12.238Z,99734.84
2022-12-20T09:13:43.969Z,99690.94
2022-12-20T09:16:17.278Z,99708.84
2022-12-20T09:18:44.457Z,99705.31
2022-12-20T09:21:11.629Z,99679.94
2022-12-20T09:23:38.791Z,99669.44
2022-12-20T09:26:10.768Z,99683.75
2022-12-20T09:28:38.111Z,99657.44
2022-12-20T09:31:07.465Z,99647.94
2022-12-20T09:33:35.568Z,99658.28
2022-12-20T09:36:03.967Z,99681.25
2022-12-20T09:38:32.465Z,99666.88
2022-12-20T09:41:03.617Z,99666.09
2022-12-20T09:43:32.127Z,99669.28
2022-12-20T09:46:01.639Z,99659.47
2022-12-20T09:48:38.150Z,99647.31
2022-12-20T09:51:18.488Z,99623.47
2022-12-20T09:54:22.971Z,99641.25
2022-12-20T09:57:19.191Z,99604.75
2022-12-20T09:59:49.830Z,99621.31
2022-12-20T10:05:46.112Z,99612.44
2022-12-20T10:08:24.778Z,99611.31
2022-12-20T10:10:59.722Z,99600.19
2022-12-20T10:13:38.956Z,99594.31
2022-12-20T10:16:33.806Z,99595.00
2022-12-20T10:19:13.041Z,99574.47
2022-12-20T10:22:04.465Z,99572.06
2022-12-20T10:24:33.310Z,99569.56
2022-12-20T10:27:13.119Z,99565.00
2022-12-20T10:29:41.054Z,99563.19
2022-12-20T10:32:19.020Z,99534.31
2022-12-20T10:35:13.367Z,99543.47
2022-12-20T10:38:09.949Z,99529.41
2022-12-20T10:41:20.569Z,99543.16
2022-12-20T10:43:51.502Z,99508.78
2022-12-20T10:46:22.042Z,99529.25
2022-12-20T10:48:49.638Z,99539.59
2022-12-20T10:51:27.675Z,99518.84
2022-12-20T10:54:04.121Z,99561.44
2022-12-20T10:56:53.907Z,99499.94
2022-12-20T10:59:21.400Z,99528.88
2022-12-20T11:01:49.769Z,99487.16
2022-12-20T11:04:29.065Z,99513.19
2022-12-20T11:06:57.217Z,99523.41
2022-12-20T11:09:33.535Z,99522.63
2022-12-20T11:12:15.761Z,99493.97
2022-12-20T11:14:47.744Z,99504.09
2022-12-20T11:17:14.748Z,99501.22
2022-12-20T11:19:56.831Z,99502.28
2022-12-20T11:22:52.149Z,99503.81
2022-12-20T11:25:25.344Z,99503.81
2022-12-20T11:28:14.240Z,99508.88
2022-12-20T11:30:54.431Z,99504.03
2022-12-20T11:33:36.664Z,99483.53
2022-12-20T11:36:03.755Z,99504.41
2022-12-20T11:38:42.739Z,99465.41
2022-12-20T11:41:45.132Z,99493.25
2022-12-20T11:44:33.192Z,99481.31
2022-12-20T11:47:57.359Z,99490.31
2022-12-20T11:50:58.913Z,99491.06
2022-12-20T11:53:32.996Z,99460.91
2022-12-20T11:56:07.000Z,99489.59
2022-12-20T11:58:46.423Z,99488.94
2022-12-20T12:01:18.184Z,99464.88
2022-12-20T12:04:11.478Z,99487.13
2022-12-20T12:06:46.466Z,99484.22
2022-12-20T12:09:16.526Z,99477.28
2022-12-20T12:12:08.875Z,99469.41
2022-12-20T12:14:54.921Z,99479.22
2022-12-20T12:17:37.101Z,99448.28
2022-12-20T12:20:34.047Z,99477.34
2022-12-20T12:23:14.586Z,99446.91
2022-12-20T12:25:41.929Z,99453.44
2022-12-20T12:28:13.143Z,99486.72
2022-12-20T12:30:46.360Z,99481.88
2022-12-20T12:33:38.070Z,99502.56
2022-12-20T12:36:42.744Z,99480.13
2022-12-20T12:39:22.485Z,99486.31
2022-12-20T12:41:52.659Z,99478.34
2022-12-20T12:44:19.608Z,99483.56
2022-12-20T12:46:48.420Z,99476.94
2022-12-20T12:49:24.579Z,99469.41
2022-12-20T12:51:56.078Z,99459.19
2022-12-20T12:54:27.388Z,99475.88
2022-12-20T12:57:06.827Z,99462.63
2022-12-20T12:59:33.908Z,99479.41
2022-12-20T13:02:07.068Z,99470.00
2022-12-20T13:05:25.887Z,99476.88
2022-12-20T13:07:53.857Z,99461.31
2022-12-20T13:10:25.006Z,99471.88
2022-12-20T13:12:52.918Z,99472.84
2022-12-20T13:15:22.859Z,99476.38
2022-12-20T13:17:58.938Z,99460.25
2022-12-20T13:20:29.091Z,99464.34
2022-12-20T13:23:18.012Z,99428.16
2022-12-20T13:25:49.638Z,99463.34
2022-12-20T13:28:19.783Z,99466.81
2022-12-20T13:30:53.299Z,99468.47
2022-12-20T13:33:24.648Z,99474.91
2022-12-20T13:36:03.980Z,99461.16
2022-12-20T13:38:43.371Z,99461.16
2022-12-20T13:41:34.828Z,99461.97
2022-12-20T13:44:14.870Z,99468.78
2022-12-20T13:46:54.160Z,99458.28
2022-12-20T13:49:28.636Z,99473.13
2022-12-20T13:52:25.518Z,99469.41
2022-12-20T13:54:55.929Z,99449.28
2022-12-20T13:57:33.169Z,99438.72
2022-12-20T14:00:07.263Z,99452.81
2022-12-20T14:02:41.219Z,99463.84
2022-12-20T14:05:18.188Z,99436.88
2022-12-20T14:07:56.105Z,99464.41
2022-12-20T14:10:25.133Z,99458.44
2022-12-20T14:12:53.658Z,99454.13
2022-12-20T14:15:26.279Z,99457.31
2022-12-20T14:17:53.824Z,99429.78
2022-12-20T14:20:33.853Z,99444.84
2022-12-20T14:23:06.513Z,99445.13
2022-12-20T14:25:59.502Z,99442.09
2022-12-20T14:28:31.826Z,99455.25
2022-12-20T14:31:28.353Z,99452.63
2022-12-20T14:34:29.735Z,99441.53
2022-12-20T14:37:29.172Z,99448.56
2022-12-20T14:39:59.324Z,99441.66
2022-12-20T14:42:33.008Z,99428.50
2022-12-20T14:45:09.395Z,99444.69
2022-12-20T14:47:39.159Z,99429.22
2022-12-20T14:50:27.203Z,99421.19
2022-12-20T14:52:54.483Z,99440.03
2022-12-20T14:55:28.056Z,99450.25
2022-12-20T14:57:56.958Z,99448.97
2022-12-20T15:00:30.643Z,99420.53
2022-12-20T15:03:23.786Z,99436.59
2022-12-20T15:05:56.240Z,99419.09
2022-12-20T15:08:23.687Z,99439.59
2022-12-20T15:10:57.772Z,99427.09
2022-12-20T15:13:51.705Z,99450.59
2022-12-20T15:16:29.631Z,99442.25
2022-12-20T15:18:59.255Z,99450.25
2022-12-20T15:21:36.248Z,99448.97
2022-12-20T15:24:10.395Z,99451.38
2022-12-20T15:26:40.149Z,99456.03
2022-12-20T15:29:07.503Z,99454.75
2022-12-20T15:31:43.456Z,99441.34
2022-12-20T15:34:18.597Z,99454.50
2022-12-20T15:36:46.924Z,99448.91
2022-12-20T15:39:14.962Z,99452.19
2022-12-20T15:41:46.558Z,99465.84
2022-12-20T15:44:21.532Z,99448.63
2022-12-20T15:46:49.125Z,99441.69
2022-12-20T15:49:26.321Z,99431.56
2022-12-20T15:51:55.908Z,99456.25
2022-12-20T15:54:30.949Z,99453.56
2022-12-20T15:57:03.187Z,99432.44
2022-12-20T15:59:59.034Z,99454.38
2022-12-20T16:02:24.898Z,99438.75
2022-12-20T16:04:53.606Z,99436.28
2022-12-20T16:07:21.025Z,99433.75
2022-12-20T16:09:48.239Z,99425.31
2022-12-20T16:12:18.574Z,99411.59
2022-12-20T16:14:45.851Z,99429.44
2022-12-20T16:17:14.411Z,99405.84
2022-12-20T16:19:46.088Z,99417.94
2022-12-20T16:22:18.166Z,99433.16
2022-12-20T16:24:46.345Z,99427.91
2022-12-20T16:27:13.938Z,99433.09
2022-12-20T16:29:41.714Z,99409.09
2022-12-20T16:32:18.506Z,99451.88
2022-12-20T16:34:46.477Z,99423.88
2022-12-20T16:37:15.487Z,99427.84
2022-12-20T16:39:43.206Z,99398.69
2022-12-20T16:42:13.395Z,99437.03
2022-12-20T16:44:43.504Z,99410.13
2022-12-20T16:47:11.577Z,99427.94
2022-12-20T16:49:44.600Z,99439.41
2022-12-20T16:52:18.110Z,99426.31
2022-12-20T16:54:45.313Z,99419.09
2022-12-20T16:57:12.474Z,99405.19
2022-12-20T16:59:39.646Z,99413.78
2022-12-20T17:02:22.982Z,99440.72
2022-12-20T17:04:51.137Z,99420.75
2022-12-20T17:07:21.030Z,99423.34
2022-12-20T17:09:55.173Z,99458.38
2022-12-20T17:12:27.627Z,99428.75
2022-12-20T17:14:56.705Z,99436.16
2022-12-20T17:17:23.924Z,99439.97
2022-12-20T17:19:50.825Z,99436.00
2022-12-20T17:25:03.217Z,99435.63
2022-12-20T17:27:30.479Z,99425.75
2022-12-20T17:29:57.386Z,99448.47
2022-12-20T17:32:25.720Z,99431.47
2022-12-20T17:34:54.082Z,99442.06
2022-12-20T17:37:21.734Z,99437.44
2022-12-20T17:39:49.288Z,99421.38
2022-12-20T17:42:17.076Z,99416.25
2022-12-20T17:44:47.546Z,99437.44
2022-12-20T17:47:14.622Z,99427.94
2022-12-20T17:49:41.605Z,99432.03
2022-12-20T17:52:15.755Z,99434.84
2022-12-20T17:54:43.288Z,99421.53
2022-12-20T17:57:17.176Z,99423.41
2022-12-20T17:59:46.759Z,99446.44
2022-12-20T18:02:25.266Z,99429.19
2022-12-20T18:04:53.520Z,99417.94
2022-12-20T18:07:20.865Z,99396.25
2022-12-20T18:09:48.975Z,99419.84
2022-12-20T18:12:16.750Z,99418.41
2022-12-20T18:14:43.899Z,99413.69
2022-12-20T18:17:11.284Z,99437.16
2022-12-20T18:19:38.737Z,99429.47
2022-12-20T18:22:06.734Z,99402.56
2022-12-20T18:24:33.896Z,99421.09
2022-12-20T18:27:01.682Z,99422.44
2022-12-20T18:29:29.421Z,99432.13
2022-12-20T18:31:56.617Z,99391.31
2022-12-20T18:34:23.984Z,99427.91
2022-12-20T18:36:51.099Z,99397.47
2022-12-20T18:39:18.635Z,99411.34
2022-12-20T18:41:45.956Z,99424.59
2022-12-20T18:44:13.035Z,99403.78
2022-12-20T18:46:41.013Z,99421.31
2022-12-20T18:49:09.504Z,99422.97
2022-12-20T18:51:37.082Z,99428.81
2022-12-20T18:54:06.113Z,99425.94
2022-12-20T18:56:36.693Z,99414.31
2022-12-20T18:59:10.911Z,99430.31
2022-12-20T19:01:40.854Z,99419.63
2022-12-20T19:04:08.723Z,99420.44
2022-12-20T19:06:37.509Z,99422.91
2022-12-20T19:09:08.502Z,99402.63
2022-12-20T19:11:35.977Z,99393.91
2022-12-20T19:14:03.885Z,99418.59
2022-12-20T19:16:32.997Z,99416.69
2022-12-20T19:19:02.435Z,99422.91
2022-12-20T19:21:31.969Z,99398.44
2022-12-20T19:24:02.364Z,99400.94
2022-12-20T19:26:30.035Z,99418.59
2022-12-20T19:28:57.679Z,99424.59
2022-12-20T19:31:32.947Z,99423.88
2022-12-20T19:34:10.458Z,99424.59
2022-12-20T19:36:39.353Z,99427.03
2022-12-20T19:39:12.487Z,99415.88
2022-12-20T19:41:40.750Z,99414.59
2022-12-20T19:44:09.048Z,99409.50
2022-12-20T19:46:36.500Z,99422.75
2022-12-20T19:49:04.277Z,99426.16
2022-12-20T19:51:32.137Z,99427.75
2022-12-20T19:54:00.080Z,99408.13
2022-12-20T19:56:36.355Z,99409.75
2022-12-20T19:59:04.010Z,99404.13
2022-12-20T20:01:31.220Z,99415.47
2022-12-20T20:04:00.581Z,99397.56
2022-12-20T20:06:28.769Z,99421.94
2022-12-20T20:08:57.848Z,99432.91
2022-12-20T20:11:25.271Z,99397.19
2022-12-20T20:13:52.836Z,99406.34
2022-12-20T20:16:22.756Z,99423.84
2022-12-20T20:18:50.667Z,99423.34
2022-12-20T20:21:22.670Z,99440.28
2022-12-20T20:23:54.890Z,99436.47
2022-12-20T20:26:24.933Z,99440.63
2022-12-20T20:28:52.723Z,99442.38
2022-12-20T20:31:20.964Z,99428.31
2022-12-20T20:33:48.538Z,99423.72
2022-12-20T20:36:18.237Z,99425.63
2022-12-20T20:38:46.141Z,99420.28
2022-12-20T20:41:14.329Z,99414.25
2022-12-20T20:43:42.195Z,99429.84
2022-12-20T20:46:11.820Z,99438.25
2022-12-20T20:48:39.909Z,99430.25
2022-12-20T20:51:07.356Z,99438.59
2022-12-20T20:53:35.546Z,99424.16
2022-12-20T20:56:03.967Z,99424.63
2022-12-20T20:58:31.885Z,99441.91
2022-12-20T21:01:01.166Z,99426.28
2022-12-20T21:03:30.466Z,99427.72
2022-12-20T21:08:45.591Z,99447.50
2022-12-20T21:11:13.141Z,99430.94
2022-12-20T21:13:40.507Z,99421.50
2022-12-20T21:16:20.424Z,99442.75
2022-12-20T21:18:58.888Z,99452.34
2022-12-20T21:21:27.079Z,99445.34
2022-12-20T21:23:55.212Z,99446.78
2022-12-20T21:26:25.233Z,99466.59
2022-12-20T21:28:56.981Z,99457.53
2022-12-20T21:31:24.228Z,99456.78
2022-12-20T21:33:51.322Z,99472.22
2022-12-20T21:36:19.054Z,99453.25
2022-12-20T21:38:50.962Z,99452.19
2022-12-20T21:41:19.383Z,99457.19
2022-12-20T21:43:46.910Z,99445.00
2022-12-20T21:46:13.990Z,99417.06
2022-12-20T21:48:43.223Z,99447.38
2022-12-20T21:51:11.796Z,99441.19
2022-12-20T21:53:43.560Z,99415.84
2022-12-20T21:56:11.109Z,99416.69
2022-12-20T21:58:57.746Z,99419.06
2022-12-20T22:01:27.433Z,99439.25
2022-12-20T22:03:57.895Z,99427.69
2022-12-20T22:06:25.712Z,99414.34
2022-12-20T22:08:52.710Z,99433.78
2022-12-20T22:11:19.943Z,99403.31
2022-12-20T22:13:47.427Z,99432.22
2022-12-20T22:16:21.223Z,99438.75
2022-12-20T22:18:50.536Z,99418.34
2022-12-20T22:21:19.607Z,99438.50
2022-12-20T22:23:46.913Z,99442.00
2022-12-20T22:26:16.883Z,99429.09
2022-12-20T22:28:47.357Z,99428.00
2022-12-20T22:31:15.242Z,99440.28
2022-12-20T22:33:42.514Z,99442.88
2022-12-20T22:36:10.779Z,99429.31
2022-12-20T22:38:37.857Z,99410.69
2022-12-20T22:41:07.549Z,99428.34
2022-12-20T22:43:34.521Z,99420.03
2022-12-20T22:48:47.184Z,99427.06
2022-12-20T22:51:18.948Z,99419.81
2022-12-20T22:53:47.678Z,99396.31
2022-12-20T22:56:16.480Z,99424.31
2022-12-20T22:58:43.857Z,99412.31
2022-12-20T23:01:12.824Z,99427.84
2022-12-20T23:03:40.296Z,99411.28
2022-12-20T23:06:10.408Z,99413.81
2022-12-20T23:08:37.589Z,99414.50
2022-12-20T23:11:24.970Z,99416.38
2022-12-20T23:14:10.690Z,99413.16
2022-12-20T23:16:38.642Z,99384.31
2022-12-20T23:19:05.782Z,99405.38
2022-12-20T23:21:51.236Z,99402.84
2022-12-20T23:24:18.241Z,99400.34
2022-12-20T23:26:45.200Z,99397.94
2022-12-20T23:29:14.230Z,99393.81
2022-12-20T23:31:41.793Z,99398.00
2022-12-20T23:34:08.979Z,99386.81
2022-12-20T23:36:35.878Z,99400.59
2022-12-20T23:39:03.691Z,99401.44
2022-12-20T23:41:30.786Z,99387.66
2022-12-20T23:43:57.816Z,99392.13
2022-12-20T23:46:25.408Z,99389.69
2022-12-20T23:48:53.270Z,99385.38
2022-12-20T23:51:21.296Z,99393.97
2022-12-20T23:53:50.517Z,99382.22
2022-12-20T23:56:20.743Z,99400.16
2022-12-20T23:58:53.937Z,99387.69
